Decoded Metar for LFRZ (ST.-NAZAIRE in FRANCE) (IATA:SNR) | Meteo·Mobile Aviation Weather
aviador You're here:

LFRZ Decoded Metar

ST.-NAZAIRE in FRANCE
Report Time2019-07-21 17:00:00
UTC Time2019-07-21 17:09:34
Flight Rules vfr VFR
Wind290° at 10 kt
W.Decomp.*RWY 26: 8.5 kt HW 5.3 kt RCW
Visibility9999 m
Phenomena:N/A
Clouds:N/A
Expected CloudBase > 4,400 ft AGL from Temp-Dew spread
CeilingNone
Temp23°C (ISA +8)
Dew Point12°C (50% RH)
AAT20.0°C
QNH1023 hPa
Density Alt801 ft
Elevation13 ft
Report Wrong Elevation
Raw Report
METAR LFRZ 211700Z AUTO 29010KT 260V330 CAVOK 23/12 Q1023 NOSIG=

Extra information for LFRZ:More info

Metar Taf Metar & Taf Last 4 Metars F.Rules Stats Wind Profile Meteogram Temp Stats Airport Information Weather charts Add Link Nearby VenuesMetar ALERT Operation Metar Decoded Social comments